Time;durP1;ratioP1;P1;durP2;ratioP2;P2;SDS_P1;SDS_P2;PMS_P1;PMS_P2;Temp;Humidity;BMP_temperature;BMP_pressure;BME280_temperature;BME280_humidity;BME280_pressure;Samples;Min_cycle;Max_cycle;Signal;HPM_P1;HPM_P2
2023/02/16 00:00:48;;;;;;;91.28;24.80;;;;;;;;;;5072383;28;20225;-64
2023/02/16 00:03:15;;;;;;;89.35;25.00;;;;;;;;;;5072655;28;20224;-64
2023/02/16 00:05:43;;;;;;;83.88;23.25;;;;;;;;;;5072794;28;20232;-64
2023/02/16 00:08:10;;;;;;;90.70;24.48;;;;;;;;;;5072920;28;20213;-64
2023/02/16 00:10:38;;;;;;;90.47;25.58;;;;;;;;;;5072340;28;20202;-64
2023/02/16 00:16:04;;;;;;;96.97;25.10;;;;;;;;;;5072855;28;20294;-64
2023/02/16 00:18:31;;;;;;;87.95;22.95;;;;;;;;;;5072256;28;20205;-63
2023/02/16 00:20:58;;;;;;;86.40;23.60;;;;;;;;;;5072247;28;20232;-64
2023/02/16 00:23:26;;;;;;;83.97;21.08;;;;;;;;;;5072357;28;20208;-64
2023/02/16 00:25:53;;;;;;;91.10;25.52;;;;;;;;;;5072198;28;20335;-64
2023/02/16 00:28:21;;;;;;;94.70;23.50;;;;;;;;;;5072182;28;20205;-64
2023/02/16 00:30:49;;;;;;;85.38;24.05;;;;;;;;;;5072055;28;20679;-64
2023/02/16 00:33:18;;;;;;;92.47;25.27;;;;;;;;;;5072100;28;20205;-64
2023/02/16 00:35:45;;;;;;;92.15;24.90;;;;;;;;;;5072236;28;20308;-64
2023/02/16 00:38:13;;;;;;;92.75;23.92;;;;;;;;;;5072088;28;20211;-64
2023/02/16 00:40:40;;;;;;;84.63;22.05;;;;;;;;;;5071745;28;20229;-64
2023/02/16 00:43:08;;;;;;;95.97;26.80;;;;;;;;;;5072005;28;20202;-64
2023/02/16 00:45:37;;;;;;;92.80;26.35;;;;;;;;;;5072062;28;20232;-64
2023/02/16 00:48:04;;;;;;;85.97;23.67;;;;;;;;;;5071934;28;20574;-64
2023/02/16 00:50:34;;;;;;;92.20;25.90;;;;;;;;;;5071703;28;20198;-64
2023/02/16 00:53:02;;;;;;;93.78;25.80;;;;;;;;;;5071971;28;20209;-64
2023/02/16 00:55:30;;;;;;;94.25;27.35;;;;;;;;;;5071775;28;20758;-64
2023/02/16 00:58:01;;;;;;;96.05;28.13;;;;;;;;;;5071930;28;20212;-64
2023/02/16 01:00:29;;;;;;;96.68;27.77;;;;;;;;;;5071505;28;20225;-64
2023/02/16 01:02:57;;;;;;;93.97;26.33;;;;;;;;;;5071961;28;20227;-64
2023/02/16 01:05:25;;;;;;;91.78;26.20;;;;;;;;;;5071887;28;20233;-64
2023/02/16 01:13:24;;;;;;;95.00;27.90;;;;;;;;;;5071957;28;20608;-64
2023/02/16 01:15:51;;;;;;;91.63;25.25;;;;;;;;;;5071696;28;20221;-64
2023/02/16 01:18:19;;;;;;;101.28;28.90;;;;;;;;;;5071447;28;20201;-64
2023/02/16 01:20:47;;;;;;;97.65;25.98;;;;;;;;;;5071538;28;20229;-64
2023/02/16 01:23:15;;;;;;;87.13;25.45;;;;;;;;;;5071691;28;20217;-64
2023/02/16 01:25:43;;;;;;;91.82;24.85;;;;;;;;;;5071971;28;20224;-64
2023/02/16 01:28:17;;;;;;;94.63;27.05;;;;;;;;;;5075693;28;20206;-64
2023/02/16 01:30:44;;;;;;;93.43;25.90;;;;;;;;;;5075279;28;20205;-64
2023/02/16 01:33:11;;;;;;;93.25;25.50;;;;;;;;;;5075780;28;20557;-64
2023/02/16 01:35:38;;;;;;;91.50;24.65;;;;;;;;;;5075810;28;20225;-64
2023/02/16 01:38:05;;;;;;;90.53;24.73;;;;;;;;;;5075556;28;20585;-64
2023/02/16 01:40:41;;;;;;;89.10;24.42;;;;;;;;;;5075221;28;20229;-63
2023/02/16 01:43:14;;;;;;;91.90;25.38;;;;;;;;;;5075300;28;20211;-64
2023/02/16 01:45:42;;;;;;;97.70;25.23;;;;;;;;;;5075598;28;20225;-64
2023/02/16 01:48:14;;;;;;;93.10;24.70;;;;;;;;;;5075263;28;20205;-64
2023/02/16 01:50:43;;;;;;;89.70;23.17;;;;;;;;;;5075257;28;20201;-64
2023/02/16 01:53:14;;;;;;;90.97;23.90;;;;;;;;;;5075195;28;20208;-64
2023/02/16 01:55:44;;;;;;;92.38;24.88;;;;;;;;;;5074997;28;20312;-64
2023/02/16 01:58:15;;;;;;;88.78;24.80;;;;;;;;;;5075180;28;20669;-64
2023/02/16 02:01:01;;;;;;;98.38;28.35;;;;;;;;;;5075009;28;20702;-64
2023/02/16 02:06:14;;;;;;;89.95;24.70;;;;;;;;;;5074945;28;20672;-64
2023/02/16 02:08:44;;;;;;;96.80;25.60;;;;;;;;;;5074646;28;20202;-64
2023/02/16 02:11:14;;;;;;;87.82;23.25;;;;;;;;;;5074749;28;20197;-64
2023/02/16 02:13:45;;;;;;;99.18;26.45;;;;;;;;;;5074926;28;20205;-64
2023/02/16 02:16:12;;;;;;;94.03;24.70;;;;;;;;;;5074732;28;20205;-64
2023/02/16 02:18:39;;;;;;;86.00;22.05;;;;;;;;;;5072782;28;20208;-64
2023/02/16 02:24:25;;;;;;;88.10;23.27;;;;;;;;;;5074508;28;20739;-64
2023/02/16 02:27:01;;;;;;;88.15;21.40;;;;;;;;;;5074697;28;20575;-64
2023/02/16 02:29:41;;;;;;;85.45;22.23;;;;;;;;;;5074286;28;20201;-64
2023/02/16 02:32:13;;;;;;;91.70;22.58;;;;;;;;;;5074520;28;20223;-61
2023/02/16 02:34:49;;;;;;;82.43;21.38;;;;;;;;;;5074847;28;20233;-64
2023/02/16 02:37:21;;;;;;;86.22;21.33;;;;;;;;;;5074194;28;20257;-64
2023/02/16 02:39:53;;;;;;;82.00;22.38;;;;;;;;;;5073982;28;20201;-64
2023/02/16 02:42:25;;;;;;;88.50;22.77;;;;;;;;;;5074347;28;20216;-64
2023/02/16 02:44:55;;;;;;;85.57;21.70;;;;;;;;;;5074117;28;20232;-64
2023/02/16 02:47:22;;;;;;;83.28;21.90;;;;;;;;;;5074447;28;20588;-64
2023/02/16 02:49:50;;;;;;;84.20;22.45;;;;;;;;;;5074020;28;20209;-64
2023/02/16 02:52:17;;;;;;;88.90;21.38;;;;;;;;;;5074154;28;20296;-64
2023/02/16 03:03:16;;;;;;;84.53;21.27;;;;;;;;;;5049158;28;20201;-64
2023/02/16 03:05:46;;;;;;;86.30;21.35;;;;;;;;;;5073711;28;20225;-64
2023/02/16 03:08:15;;;;;;;85.72;21.42;;;;;;;;;;5074143;28;20207;-64
2023/02/16 03:13:32;;;;;;;87.22;20.73;;;;;;;;;;5074231;28;20200;-64
2023/02/16 03:16:00;;;;;;;89.22;24.25;;;;;;;;;;5073538;28;20225;-64
2023/02/16 03:29:31;;;;;;;86.03;20.13;;;;;;;;;;5073102;28;20200;-64
2023/02/16 03:31:58;;;;;;;82.57;22.15;;;;;;;;;;5073353;28;20205;-64
2023/02/16 03:34:25;;;;;;;87.45;21.70;;;;;;;;;;5073214;28;20229;-64
2023/02/16 03:36:57;;;;;;;86.00;20.75;;;;;;;;;;5073094;28;20207;-64
2023/02/16 03:39:24;;;;;;;84.40;20.67;;;;;;;;;;5073074;28;20304;-64
2023/02/16 03:41:52;;;;;;;85.53;22.60;;;;;;;;;;5073400;28;20233;-64
2023/02/16 03:44:19;;;;;;;87.65;22.65;;;;;;;;;;5073056;28;20240;-64
2023/02/16 03:46:48;;;;;;;85.55;21.42;;;;;;;;;;5073075;28;20207;-64
2023/02/16 03:49:16;;;;;;;83.38;21.23;;;;;;;;;;5071845;28;20205;-64
2023/02/16 03:51:43;;;;;;;84.95;20.60;;;;;;;;;;5073133;28;20201;-64
2023/02/16 03:54:10;;;;;;;81.05;20.08;;;;;;;;;;5073013;28;20232;-64
2023/02/16 03:56:37;;;;;;;85.47;22.20;;;;;;;;;;5072881;28;20205;-64
2023/02/16 03:59:04;;;;;;;85.50;21.73;;;;;;;;;;5072527;28;20251;-64
2023/02/16 04:01:31;;;;;;;97.78;28.20;;;;;;;;;;5072680;28;20719;-64
2023/02/16 04:04:00;;;;;;;89.15;22.50;;;;;;;;;;5072493;28;20212;-64
2023/02/16 04:06:27;;;;;;;83.50;20.30;;;;;;;;;;5073292;28;20208;-64
2023/02/16 04:08:54;;;;;;;87.57;22.98;;;;;;;;;;5072464;28;20205;-64
2023/02/16 04:14:06;;;;;;;110.45;32.03;;;;;;;;;;5072535;28;20223;-64
2023/02/16 04:16:33;;;;;;;134.98;47.40;;;;;;;;;;5072227;28;20209;-64
2023/02/16 04:19:02;;;;;;;109.22;31.95;;;;;;;;;;5071995;28;20205;-64
2023/02/16 04:21:29;;;;;;;93.18;25.35;;;;;;;;;;5072397;28;20225;-64
2023/02/16 04:23:56;;;;;;;94.85;25.98;;;;;;;;;;5072266;28;20213;-64
2023/02/16 04:26:23;;;;;;;92.88;25.77;;;;;;;;;;5072335;28;20227;-64
2023/02/16 04:28:50;;;;;;;85.28;22.00;;;;;;;;;;5071837;28;20201;-64
2023/02/16 04:31:17;;;;;;;84.85;22.40;;;;;;;;;;5072594;28;20331;-64
2023/02/16 04:33:44;;;;;;;92.85;24.15;;;;;;;;;;5072504;28;20215;-64
2023/02/16 04:36:12;;;;;;;90.88;24.50;;;;;;;;;;5072094;28;20211;-64
2023/02/16 04:38:40;;;;;;;98.80;26.88;;;;;;;;;;5071617;28;20193;-64
2023/02/16 04:41:07;;;;;;;86.90;23.40;;;;;;;;;;5071973;28;20311;-64
2023/02/16 04:43:34;;;;;;;86.43;22.70;;;;;;;;;;5071946;28;20205;-64
2023/02/16 04:46:01;;;;;;;90.68;22.52;;;;;;;;;;5071889;28;20759;-64
2023/02/16 04:48:28;;;;;;;88.65;24.15;;;;;;;;;;5071843;28;20212;-64
2023/02/16 04:50:55;;;;;;;87.68;24.02;;;;;;;;;;5071798;28;20373;-64
2023/02/16 04:53:24;;;;;;;92.07;24.60;;;;;;;;;;5072062;28;20208;-64
2023/02/16 04:55:51;;;;;;;93.10;23.58;;;;;;;;;;5071801;28;20604;-64
2023/02/16 04:58:18;;;;;;;89.88;24.92;;;;;;;;;;5071942;28;20220;-64
2023/02/16 05:00:45;;;;;;;88.05;22.73;;;;;;;;;;5071764;28;20225;-64
2023/02/16 05:03:12;;;;;;;91.93;22.85;;;;;;;;;;5071963;28;20201;-64
2023/02/16 05:05:40;;;;;;;89.50;21.65;;;;;;;;;;5072015;28;20221;-64
2023/02/16 05:08:07;;;;;;;88.93;21.73;;;;;;;;;;5071704;28;20692;-64
2023/02/16 05:10:36;;;;;;;89.40;22.55;;;;;;;;;;5071313;28;20205;-64
2023/02/16 05:15:47;;;;;;;84.10;21.67;;;;;;;;;;5072244;28;20224;-64
2023/02/16 05:18:14;;;;;;;82.85;21.92;;;;;;;;;;5071638;28;20201;-64
2023/02/16 05:23:26;;;;;;;87.47;22.00;;;;;;;;;;5071649;28;20370;-64
2023/02/16 05:25:55;;;;;;;87.50;21.02;;;;;;;;;;5071494;28;20225;-64
2023/02/16 05:28:22;;;;;;;83.72;20.38;;;;;;;;;;5071615;28;20216;-64
2023/02/16 05:30:49;;;;;;;85.07;20.58;;;;;;;;;;5071232;28;20209;-64
2023/02/16 05:33:16;;;;;;;79.68;20.48;;;;;;;;;;5071505;28;20205;-64
2023/02/16 05:35:43;;;;;;;85.70;21.15;;;;;;;;;;5071326;28;20225;-64
2023/02/16 05:38:10;;;;;;;84.25;21.10;;;;;;;;;;5071387;28;20211;-64
2023/02/16 05:40:37;;;;;;;83.00;18.73;;;;;;;;;;5071273;28;20586;-64
2023/02/16 05:43:05;;;;;;;89.50;20.92;;;;;;;;;;5071516;28;20212;-64
2023/02/16 05:45:33;;;;;;;88.32;21.83;;;;;;;;;;5071284;28;20236;-64
2023/02/16 05:48:00;;;;;;;81.43;19.55;;;;;;;;;;5071289;28;20227;-64
2023/02/16 05:50:27;;;;;;;83.65;20.75;;;;;;;;;;5071406;28;20411;-64
2023/02/16 05:52:54;;;;;;;83.70;20.23;;;;;;;;;;5071511;28;20585;-64
2023/02/16 05:55:21;;;;;;;87.30;20.10;;;;;;;;;;5071400;28;20232;-64
2023/02/16 05:57:48;;;;;;;82.68;18.90;;;;;;;;;;5071459;28;20209;-64
2023/02/16 06:00:17;;;;;;;84.07;21.63;;;;;;;;;;5071140;28;20593;-64
2023/02/16 06:02:44;;;;;;;89.78;20.63;;;;;;;;;;5071228;28;20233;-64
2023/02/16 06:05:11;;;;;;;83.53;19.35;;;;;;;;;;5071078;28;20735;-64
2023/02/16 06:07:38;;;;;;;93.07;24.00;;;;;;;;;;5071268;28;20209;-64
2023/02/16 06:10:06;;;;;;;87.55;21.38;;;;;;;;;;5070777;28;20213;-64
2023/02/16 06:12:33;;;;;;;83.35;21.02;;;;;;;;;;5072875;28;20202;-64
2023/02/16 06:15:00;;;;;;;83.32;21.15;;;;;;;;;;5074639;28;20268;-64
2023/02/16 06:17:29;;;;;;;82.97;21.55;;;;;;;;;;5074762;28;20551;-64
2023/02/16 06:19:56;;;;;;;85.00;21.40;;;;;;;;;;5074670;28;20247;-64
2023/02/16 06:22:23;;;;;;;85.70;20.50;;;;;;;;;;5074475;28;20709;-64
2023/02/16 06:24:50;;;;;;;88.03;20.38;;;;;;;;;;5074422;28;20229;-64
2023/02/16 06:27:17;;;;;;;81.82;19.95;;;;;;;;;;5063781;28;20198;-64
2023/02/16 06:29:44;;;;;;;83.13;19.15;;;;;;;;;;5054068;28;20233;-63
2023/02/16 06:32:13;;;;;;;80.15;20.55;;;;;;;;;;5054675;28;20682;-64
2023/02/16 06:34:41;;;;;;;83.20;19.42;;;;;;;;;;5054477;28;20621;-64
2023/02/16 06:37:08;;;;;;;87.85;20.58;;;;;;;;;;5054586;28;20216;-64
2023/02/16 06:39:35;;;;;;;81.35;20.13;;;;;;;;;;5053969;28;20579;-64
2023/02/16 06:42:02;;;;;;;83.70;19.95;;;;;;;;;;5054139;28;20234;-64
2023/02/16 06:44:29;;;;;;;81.25;19.17;;;;;;;;;;5054218;28;20221;-64
2023/02/16 06:46:56;;;;;;;85.55;22.52;;;;;;;;;;5054317;28;20581;-64
2023/02/16 06:49:25;;;;;;;82.35;19.95;;;;;;;;;;5053914;28;20209;-64
2023/02/16 06:51:53;;;;;;;82.40;19.90;;;;;;;;;;5054092;28;20206;-64
2023/02/16 06:54:20;;;;;;;86.32;21.45;;;;;;;;;;5053869;28;20714;-64
2023/02/16 06:56:47;;;;;;;84.18;21.35;;;;;;;;;;5053814;28;20206;-64
2023/02/16 06:59:14;;;;;;;80.50;20.27;;;;;;;;;;5053885;28;20205;-64
2023/02/16 07:01:41;;;;;;;84.15;21.42;;;;;;;;;;5053683;28;20737;-64
2023/02/16 07:04:09;;;;;;;81.93;20.30;;;;;;;;;;5053718;28;20232;-64
2023/02/16 07:06:36;;;;;;;83.68;20.50;;;;;;;;;;5053696;28;20645;-63
2023/02/16 07:09:05;;;;;;;95.82;21.45;;;;;;;;;;5053310;28;20300;-64
2023/02/16 07:11:32;;;;;;;81.43;20.30;;;;;;;;;;5053737;28;20202;-64
2023/02/16 07:13:59;;;;;;;81.50;19.95;;;;;;;;;;5053587;28;20700;-64
2023/02/16 07:16:26;;;;;;;81.07;19.95;;;;;;;;;;5053765;28;20205;-64
2023/02/16 07:18:53;;;;;;;83.97;20.60;;;;;;;;;;5053299;28;20206;-64
2023/02/16 07:21:20;;;;;;;86.15;22.05;;;;;;;;;;5053337;28;20706;-64
2023/02/16 07:23:47;;;;;;;86.45;21.65;;;;;;;;;;5052330;28;20213;-64
2023/02/16 07:26:16;;;;;;;86.50;22.67;;;;;;;;;;5053408;28;20206;-64
2023/02/16 07:28:43;;;;;;;89.72;21.92;;;;;;;;;;5053146;28;20577;-64
2023/02/16 07:31:10;;;;;;;82.05;20.10;;;;;;;;;;5053404;28;20213;-64
2023/02/16 07:33:38;;;;;;;86.97;21.77;;;;;;;;;;5053442;28;20205;-64
2023/02/16 07:36:06;;;;;;;84.72;21.73;;;;;;;;;;5053244;28;20229;-64
2023/02/16 07:38:33;;;;;;;84.32;21.45;;;;;;;;;;5052775;28;20205;-64
2023/02/16 07:41:00;;;;;;;79.68;20.35;;;;;;;;;;5053073;28;20213;-64
2023/02/16 07:43:28;;;;;;;85.57;22.48;;;;;;;;;;5053295;28;20221;-64
2023/02/16 07:45:56;;;;;;;87.25;23.90;;;;;;;;;;5053238;28;20221;-64
2023/02/16 07:48:23;;;;;;;89.50;23.08;;;;;;;;;;5052934;28;20206;-64
2023/02/16 07:50:50;;;;;;;85.05;21.65;;;;;;;;;;5052669;28;20210;-64
2023/02/16 07:53:17;;;;;;;83.57;21.48;;;;;;;;;;5053227;28;20198;-64
2023/02/16 07:55:45;;;;;;;90.28;23.80;;;;;;;;;;5052908;28;20234;-64
2023/02/16 07:58:25;;;;;;;84.90;21.70;;;;;;;;;;5053135;28;20394;-64
2023/02/16 08:00:54;;;;;;;84.18;20.30;;;;;;;;;;5052754;28;20209;-64
2023/02/16 08:03:21;;;;;;;87.20;23.38;;;;;;;;;;5052783;28;20276;-64
2023/02/16 08:05:48;;;;;;;82.10;21.48;;;;;;;;;;5052472;28;20687;-64
2023/02/16 08:08:15;;;;;;;84.82;21.50;;;;;;;;;;5052801;28;20212;-64
2023/02/16 08:10:42;;;;;;;85.50;22.20;;;;;;;;;;5052532;28;20213;-64
2023/02/16 08:13:09;;;;;;;90.05;23.23;;;;;;;;;;5053046;28;20213;-64
2023/02/16 08:15:36;;;;;;;84.47;22.73;;;;;;;;;;5052604;28;20228;-64
2023/02/16 08:18:05;;;;;;;90.00;21.95;;;;;;;;;;5052510;28;20206;-64
2023/02/16 08:20:32;;;;;;;89.45;23.02;;;;;;;;;;5052407;28;20205;-64
2023/02/16 08:22:59;;;;;;;85.88;21.88;;;;;;;;;;5052325;28;20610;-64
2023/02/16 08:25:26;;;;;;;85.25;21.63;;;;;;;;;;5052463;28;20224;-64
2023/02/16 08:27:53;;;;;;;82.15;20.80;;;;;;;;;;5052318;28;20206;-64
2023/02/16 08:30:23;;;;;;;85.18;22.23;;;;;;;;;;5051983;28;20212;-64
2023/02/16 08:32:52;;;;;;;84.82;21.98;;;;;;;;;;5052009;28;20204;-64
2023/02/16 08:35:20;;;;;;;81.40;20.80;;;;;;;;;;5051736;28;20239;-64
2023/02/16 08:37:47;;;;;;;79.60;19.33;;;;;;;;;;5052215;28;20682;-64
2023/02/16 08:40:15;;;;;;;85.32;21.80;;;;;;;;;;5051871;28;20207;-64
2023/02/16 08:42:42;;;;;;;80.00;19.67;;;;;;;;;;5052018;28;20235;-64
2023/02/16 08:45:09;;;;;;;86.90;21.02;;;;;;;;;;5051722;28;20750;-64
2023/02/16 08:47:37;;;;;;;79.10;20.08;;;;;;;;;;5052272;28;20208;-64
2023/02/16 08:50:04;;;;;;;79.78;20.85;;;;;;;;;;5051674;28;20207;-64
2023/02/16 08:52:32;;;;;;;83.68;21.00;;;;;;;;;;5051749;28;20213;-64
2023/02/16 08:55:00;;;;;;;81.35;22.08;;;;;;;;;;5051802;28;20226;-64
2023/02/16 08:57:27;;;;;;;81.47;19.38;;;;;;;;;;5051858;28;20209;-64
2023/02/16 09:02:35;;;;;;;85.28;22.10;;;;;;;;;;5051264;28;20221;-64
2023/02/16 09:05:02;;;;;;;84.55;21.52;;;;;;;;;;5051707;28;20229;-64
2023/02/16 09:07:33;;;;;;;86.25;23.17;;;;;;;;;;5051815;28;20206;-64
2023/02/16 09:10:03;;;;;;;83.20;20.33;;;;;;;;;;5051355;28;20265;-64
2023/02/16 09:12:31;;;;;;;84.78;21.88;;;;;;;;;;5051632;28;20212;-64
2023/02/16 09:14:58;;;;;;;82.55;21.10;;;;;;;;;;5051747;28;20221;-64
2023/02/16 09:17:26;;;;;;;84.95;21.45;;;;;;;;;;5051712;28;20212;-64
2023/02/16 09:19:54;;;;;;;79.88;18.50;;;;;;;;;;5051291;28;20206;-64
2023/02/16 09:22:21;;;;;;;86.68;23.00;;;;;;;;;;5051665;28;20222;-64
2023/02/16 09:24:48;;;;;;;82.45;20.95;;;;;;;;;;5051248;28;20790;-64
2023/02/16 09:27:17;;;;;;;81.00;17.75;;;;;;;;;;5051410;28;20212;-64
2023/02/16 09:29:44;;;;;;;81.00;18.15;;;;;;;;;;5051287;28;20296;-64
2023/02/16 09:32:11;;;;;;;76.95;17.58;;;;;;;;;;5051535;28;20201;-64
2023/02/16 09:34:38;;;;;;;82.50;18.90;;;;;;;;;;5051339;28;20226;-64
2023/02/16 09:37:05;;;;;;;80.93;18.17;;;;;;;;;;5051396;28;20357;-64
2023/02/16 09:39:32;;;;;;;77.97;17.90;;;;;;;;;;5050974;28;20205;-64
2023/02/16 09:42:03;;;;;;;77.90;17.17;;;;;;;;;;5051452;28;20248;-64
2023/02/16 09:44:36;;;;;;;78.83;17.57;;;;;;;;;;5051321;28;20241;-64
2023/02/16 09:47:05;;;;;;;79.47;17.53;;;;;;;;;;5052447;28;20821;-64
2023/02/16 09:49:33;;;;;;;78.10;16.73;;;;;;;;;;5054885;28;20451;-64
2023/02/16 09:52:03;;;;;;;89.63;15.80;;;;;;;;;;5055080;28;20539;-65
2023/02/16 09:54:34;;;;;;;81.67;16.90;;;;;;;;;;5055432;28;20472;-64
2023/02/16 09:57:03;;;;;;;74.07;14.50;;;;;;;;;;5055193;28;20839;-65
2023/02/16 09:59:39;;;;;;;71.73;13.20;;;;;;;;;;5054966;28;20852;-65
2023/02/16 10:02:20;;;;;;;71.93;13.37;;;;;;;;;;5054996;28;20487;-65
2023/02/16 10:04:52;;;;;;;84.73;20.70;;;;;;;;;;5054806;28;20467;-62
2023/02/16 10:07:25;;;;;;;74.87;16.17;;;;;;;;;;5055087;28;20451;-62
2023/02/16 10:09:54;;;;;;;69.20;12.97;;;;;;;;;;5054669;28;20448;-63
2023/02/16 10:12:25;;;;;;;72.93;13.20;;;;;;;;;;5054796;28;20436;-62
2023/02/16 10:14:55;;;;;;;76.00;12.90;;;;;;;;;;5054612;28;20976;-63
2023/02/16 10:17:27;;;;;;;72.70;12.97;;;;;;;;;;5054889;28;20448;-62
2023/02/16 10:19:56;;;;;;;77.57;15.70;;;;;;;;;;5054261;28;20441;-64
2023/02/16 10:22:27;;;;;;;69.67;12.93;;;;;;;;;;5054409;28;21008;-64
2023/02/16 10:24:59;;;;;;;72.37;13.40;;;;;;;;;;5054445;28;20692;-64
2023/02/16 10:27:27;;;;;;;73.60;14.30;;;;;;;;;;5054768;28;20444;-64
2023/02/16 10:29:56;;;;;;;70.37;14.00;;;;;;;;;;5054031;28;20456;-64
2023/02/16 10:32:28;;;;;;;70.30;13.80;;;;;;;;;;5054572;28;20799;-64
2023/02/16 10:35:00;;;;;;;72.03;14.07;;;;;;;;;;5054239;28;20522;-64
2023/02/16 10:37:38;;;;;;;70.77;12.63;;;;;;;;;;5054493;28;20458;-64
2023/02/16 10:40:14;;;;;;;71.17;13.70;;;;;;;;;;5054193;28;20766;-64
2023/02/16 10:42:45;;;;;;;76.40;14.83;;;;;;;;;;5054373;28;20481;-64
2023/02/16 10:45:18;;;;;;;74.80;14.27;;;;;;;;;;5054134;28;20475;-63
2023/02/16 10:47:46;;;;;;;72.50;14.63;;;;;;;;;;5054134;28;20452;-64
2023/02/16 10:50:19;;;;;;;70.20;12.90;;;;;;;;;;5053566;28;20444;-64
2023/02/16 10:52:46;;;;;;;70.10;12.70;;;;;;;;;;5054171;28;20449;-64
2023/02/16 10:55:14;;;;;;;70.40;12.30;;;;;;;;;;5054101;28;20479;-64
2023/02/16 10:57:41;;;;;;;72.13;12.50;;;;;;;;;;5054146;28;20779;-64
2023/02/16 11:00:10;;;;;;;66.87;11.63;;;;;;;;;;5053595;28;20448;-63
2023/02/16 11:02:40;;;;;;;70.53;11.40;;;;;;;;;;5053722;28;20534;-64
2023/02/16 11:05:22;;;;;;;67.90;11.23;;;;;;;;;;5053793;28;20986;-64
2023/02/16 11:07:53;;;;;;;65.60;9.80;;;;;;;;;;5053615;28;20475;-64
2023/02/16 11:10:22;;;;;;;66.77;10.43;;;;;;;;;;5053475;28;20440;-63
2023/02/16 11:12:56;;;;;;;66.20;10.23;;;;;;;;;;5053675;28;20445;-63
2023/02/16 11:15:24;;;;;;;68.10;10.27;;;;;;;;;;5053464;28;20522;-63
2023/02/16 11:17:55;;;;;;;66.33;10.57;;;;;;;;;;5053646;28;20506;-63
2023/02/16 11:20:27;;;;;;;65.80;10.03;;;;;;;;;;5053283;28;20450;-63
2023/02/16 11:22:55;;;;;;;66.83;9.70;;;;;;;;;;5053384;28;20563;-63
2023/02/16 11:25:23;;;;;;;63.73;9.13;;;;;;;;;;5053435;28;20498;-64
2023/02/16 11:27:52;;;;;;;64.63;8.97;;;;;;;;;;5053293;28;20452;-63
2023/02/16 11:30:22;;;;;;;64.20;9.23;;;;;;;;;;5052981;28;20460;-63
2023/02/16 11:32:50;;;;;;;65.00;8.90;;;;;;;;;;5053422;28;20823;-63
2023/02/16 11:35:18;;;;;;;66.47;9.30;;;;;;;;;;5053156;28;20472;-64
2023/02/16 11:37:46;;;;;;;64.40;9.50;;;;;;;;;;5053074;28;20542;-63
2023/02/16 11:40:21;;;;;;;66.03;9.27;;;;;;;;;;5052705;28;20452;-64
2023/02/16 11:42:49;;;;;;;65.13;10.00;;;;;;;;;;5053153;28;20486;-64
2023/02/16 11:45:23;;;;;;;65.00;8.63;;;;;;;;;;5052930;28;20979;-64
2023/02/16 11:47:53;;;;;;;67.10;9.13;;;;;;;;;;5053087;28;20452;-64
2023/02/16 11:50:25;;;;;;;69.73;9.47;;;;;;;;;;5052800;28;20455;-64
2023/02/16 11:52:54;;;;;;;63.50;8.87;;;;;;;;;;5052826;28;20514;-64
2023/02/16 11:55:25;;;;;;;63.93;8.17;;;;;;;;;;5052964;28;20468;-63
2023/02/16 11:57:52;;;;;;;67.97;8.97;;;;;;;;;;5052748;28;20929;-64
2023/02/16 12:00:21;;;;;;;64.60;9.03;;;;;;;;;;5052833;28;20785;-63
2023/02/16 12:03:06;;;;;;;63.70;8.90;;;;;;;;;;5052484;28;20989;-64
2023/02/16 12:05:40;;;;;;;64.60;9.90;;;;;;;;;;5052550;28;20991;-64
2023/02/16 12:08:22;;;;;;;67.00;9.93;;;;;;;;;;5052692;28;20487;-64
2023/02/16 12:10:56;;;;;;;67.77;9.67;;;;;;;;;;5051911;28;20451;-64
2023/02/16 12:13:27;;;;;;;65.03;9.70;;;;;;;;;;5052278;28;20571;-64
2023/02/16 12:15:56;;;;;;;65.67;9.77;;;;;;;;;;5052629;28;20486;-64
2023/02/16 12:18:27;;;;;;;65.50;9.00;;;;;;;;;;5052276;28;20452;-64
2023/02/16 12:20:59;;;;;;;67.60;9.17;;;;;;;;;;5052368;28;20510;-65
2023/02/16 12:23:30;;;;;;;64.40;9.70;;;;;;;;;;5052422;28;20456;-64
2023/02/16 12:26:05;;;;;;;65.77;10.07;;;;;;;;;;5052253;28;20474;-65
2023/02/16 12:28:38;;;;;;;63.27;8.90;;;;;;;;;;5052140;28;20459;-62
2023/02/16 12:31:11;;;;;;;63.77;9.10;;;;;;;;;;5052252;28;20774;-62
2023/02/16 12:33:40;;;;;;;65.40;10.00;;;;;;;;;;5052240;28;20479;-62
2023/02/16 12:36:21;;;;;;;67.83;10.80;;;;;;;;;;5052099;28;20479;-64
2023/02/16 12:38:52;;;;;;;65.33;9.83;;;;;;;;;;5051931;28;20491;-64
2023/02/16 12:41:24;;;;;;;66.53;9.50;;;;;;;;;;5052132;28;20452;-64
2023/02/16 12:43:53;;;;;;;66.97;9.67;;;;;;;;;;5051083;28;20534;-64
2023/02/16 12:46:23;;;;;;;68.47;10.10;;;;;;;;;;5052085;28;20452;-64
2023/02/16 12:48:52;;;;;;;65.57;9.70;;;;;;;;;;5051400;28;20459;-65
2023/02/16 12:51:22;;;;;;;68.30;9.90;;;;;;;;;;5052032;28;20487;-64
2023/02/16 12:53:52;;;;;;;67.20;10.67;;;;;;;;;;5052016;28;20487;-64
2023/02/16 12:56:22;;;;;;;65.60;9.30;;;;;;;;;;5051976;28;20450;-64
2023/02/16 12:58:54;;;;;;;64.10;9.87;;;;;;;;;;5051567;28;20448;-65
2023/02/16 13:01:23;;;;;;;65.43;9.53;;;;;;;;;;5051712;28;20460;-62
2023/02/16 13:03:53;;;;;;;72.13;10.20;;;;;;;;;;5051812;28;20448;-62
2023/02/16 13:06:24;;;;;;;70.00;10.57;;;;;;;;;;5051991;28;20475;-65
2023/02/16 13:08:56;;;;;;;71.60;10.17;;;;;;;;;;5051400;28;20535;-64
2023/02/16 13:11:27;;;;;;;66.90;9.87;;;;;;;;;;5051635;28;20965;-64
2023/02/16 13:13:57;;;;;;;64.30;10.30;;;;;;;;;;5051304;28;20475;-62
2023/02/16 13:16:28;;;;;;;67.33;10.10;;;;;;;;;;5051721;28;20514;-62
2023/02/16 13:18:56;;;;;;;63.83;9.40;;;;;;;;;;5051371;28;20460;-62
2023/02/16 13:21:33;;;;;;;66.20;9.83;;;;;;;;;;5051636;28;20448;-64
2023/02/16 13:24:04;;;;;;;69.00;9.87;;;;;;;;;;5055661;28;20452;-62
2023/02/16 13:26:41;;;;;;;65.20;10.47;;;;;;;;;;5055650;28;20760;-62
2023/02/16 13:29:21;;;;;;;63.77;9.80;;;;;;;;;;5055338;28;20458;-62
2023/02/16 13:31:52;;;;;;;65.50;10.57;;;;;;;;;;5055709;28;20493;-64
2023/02/16 13:34:43;;;;;;;65.03;9.53;;;;;;;;;;5055388;28;20915;-64
2023/02/16 13:37:19;;;;;;;64.30;9.23;;;;;;;;;;5055637;28;20444;-64
2023/02/16 13:39:56;;;;;;;72.43;10.40;;;;;;;;;;5055329;28;20546;-64
2023/02/16 13:42:44;;;;;;;67.17;10.73;;;;;;;;;;5055827;28;20457;-64
2023/02/16 13:45:15;;;;;;;65.30;9.70;;;;;;;;;;5029858;28;20483;-64
2023/02/16 13:47:42;;;;;;;68.13;10.93;;;;;;;;;;5055712;28;20448;-64
2023/02/16 13:50:24;;;;;;;68.80;11.50;;;;;;;;;;5054963;28;20985;-64
2023/02/16 13:52:53;;;;;;;68.13;11.57;;;;;;;;;;5055389;28;20487;-64
2023/02/16 13:55:27;;;;;;;71.97;11.37;;;;;;;;;;5055118;28;20484;-64
2023/02/16 13:58:00;;;;;;;71.57;10.90;;;;;;;;;;5055008;28;20982;-64
2023/02/16 14:00:30;;;;;;;67.40;11.00;;;;;;;;;;5055002;28;20509;-64
2023/02/16 14:02:59;;;;;;;68.13;10.20;;;;;;;;;;5055050;28;20467;-64
2023/02/16 14:05:28;;;;;;;66.70;10.73;;;;;;;;;;5054883;28;20467;-64
2023/02/16 14:08:14;;;;;;;68.30;11.07;;;;;;;;;;5054781;28;20449;-63
2023/02/16 14:11:10;;;;;;;68.90;10.80;;;;;;;;;;5054895;28;20883;-64
2023/02/16 14:13:46;;;;;;;70.43;11.23;;;;;;;;;;4993127;28;20502;-64
2023/02/16 14:16:27;;;;;;;68.97;11.00;;;;;;;;;;5043600;28;20491;-63
2023/02/16 14:18:56;;;;;;;72.57;12.43;;;;;;;;;;5054589;28;20452;-63
2023/02/16 14:21:28;;;;;;;71.73;10.90;;;;;;;;;;5054537;28;20971;-64
2023/02/16 14:23:55;;;;;;;66.87;10.53;;;;;;;;;;5054512;28;20455;-64
2023/02/16 14:26:23;;;;;;;69.67;11.13;;;;;;;;;;5054499;28;20447;-63
2023/02/16 14:29:08;;;;;;;71.80;11.10;;;;;;;;;;5054140;28;20448;-63
2023/02/16 14:31:41;;;;;;;69.50;11.10;;;;;;;;;;5054675;28;20494;-63
2023/02/16 14:34:15;;;;;;;68.60;10.77;;;;;;;;;;5054100;28;20599;-63
2023/02/16 14:36:57;;;;;;;69.03;10.70;;;;;;;;;;5054421;28;20478;-63
2023/02/16 14:39:24;;;;;;;67.90;10.90;;;;;;;;;;5053873;28;20820;-63
2023/02/16 14:41:51;;;;;;;69.00;10.93;;;;;;;;;;5054440;28;20463;-63
2023/02/16 14:44:32;;;;;;;66.90;10.07;;;;;;;;;;5054188;28;20461;-63
2023/02/16 14:47:07;;;;;;;68.47;11.07;;;;;;;;;;5054190;28;20463;-63
2023/02/16 14:49:54;;;;;;;68.80;10.27;;;;;;;;;;5053828;28;20451;-63
2023/02/16 14:52:35;;;;;;;70.43;10.37;;;;;;;;;;5053983;28;20484;-63
2023/02/16 14:55:10;;;;;;;69.47;10.90;;;;;;;;;;5053935;28;20488;-63
2023/02/16 14:57:41;;;;;;;66.93;10.00;;;;;;;;;;5054126;28;20463;-63
2023/02/16 15:00:18;;;;;;;69.40;10.87;;;;;;;;;;5053707;28;20454;-63
2023/02/16 15:02:55;;;;;;;66.40;10.03;;;;;;;;;;5054009;28;20456;-63
2023/02/16 15:05:23;;;;;;;65.60;9.97;;;;;;;;;;5053820;28;20825;-63
2023/02/16 15:07:52;;;;;;;67.73;11.10;;;;;;;;;;5053687;28;20463;-63
2023/02/16 15:10:21;;;;;;;69.03;10.53;;;;;;;;;;5053348;28;20933;-63
2023/02/16 15:12:49;;;;;;;64.87;9.10;;;;;;;;;;5053527;28;20756;-63
2023/02/16 15:15:22;;;;;;;65.83;9.30;;;;;;;;;;5053563;28;20491;-63
2023/02/16 15:17:51;;;;;;;66.10;10.27;;;;;;;;;;5053750;28;20488;-63
2023/02/16 15:20:22;;;;;;;67.77;10.07;;;;;;;;;;5053271;28;20858;-62